Time;durP1;ratioP1;P1;durP2;ratioP2;P2;SDS_P1;SDS_P2;PMS_P1;PMS_P2;Temp;Humidity;BMP_temperature;BMP_pressure;BME280_temperature;BME280_humidity;BME280_pressure;Samples;Min_cycle;Max_cycle;Signal;HPM_P1;HPM_P2
2022/10/17 00:01:37;;;;;;;11.50;10.30;;;;;;;13.36;100.00;101351.31;5053397;28;20458;-57
2022/10/17 00:04:02;;;;;;;13.93;10.02;;;;;;;13.34;100.00;101355.75;5053400;28;20201;-57
2022/10/17 00:06:27;;;;;;;14.57;10.27;;;;;;;13.36;100.00;101358.38;5053389;28;20090;-57
2022/10/17 00:08:53;;;;;;;11.45;10.23;;;;;;;13.35;100.00;101348.69;5053187;28;20051;-52
2022/10/17 00:11:21;;;;;;;12.10;10.70;;;;;;;13.26;100.00;101341.09;5053125;28;20476;-54
2022/10/17 00:13:47;;;;;;;16.73;12.07;;;;;;;12.93;100.00;101287.59;5053204;28;20039;-59
2022/10/17 00:16:13;;;;;;;13.65;10.63;;;;;;;12.92;100.00;101292.03;5048967;28;20037;-56
2022/10/17 00:18:39;;;;;;;12.02;10.90;;;;;;;12.90;100.00;101299.13;5051843;28;20029;-54
2022/10/17 00:21:04;;;;;;;16.08;11.70;;;;;;;13.25;100.00;101347.31;5052927;28;20035;-55
2022/10/17 00:23:30;;;;;;;15.05;11.20;;;;;;;13.24;100.00;101346.44;5052416;28;20519;-55
2022/10/17 00:26:03;;;;;;;12.88;11.63;;;;;;;13.12;100.00;101323.06;5053005;28;20111;-56
2022/10/17 00:28:29;;;;;;;15.60;12.38;;;;;;;13.10;100.00;101316.13;5050964;28;20044;-58
2022/10/17 00:31:00;;;;;;;14.38;12.27;;;;;;;12.87;100.00;101272.81;5052610;28;20434;-59
2022/10/17 00:33:26;;;;;;;14.25;12.77;;;;;;;12.86;100.00;101273.75;5051880;28;20071;-52
2022/10/17 00:36:08;;;;;;;15.40;12.18;;;;;;;13.16;100.00;101327.34;5052655;28;20040;-52
2022/10/17 00:38:35;;;;;;;14.65;13.18;;;;;;;13.23;100.00;101338.56;5032808;28;20059;-54
2022/10/17 00:41:02;;;;;;;14.35;12.70;;;;;;;13.12;100.00;101336.28;5040080;28;20119;-56
2022/10/17 00:43:28;;;;;;;15.55;13.20;;;;;;;12.55;100.00;101225.53;5052439;28;20035;-58
2022/10/17 00:45:54;;;;;;;16.00;13.75;;;;;;;13.21;100.00;101340.41;5051388;28;20029;-58
2022/10/17 00:48:21;;;;;;;16.77;14.23;;;;;;;12.93;100.00;101291.09;5051382;28;20029;-58
2022/10/17 00:50:47;;;;;;;15.10;13.43;;;;;;;13.26;100.00;101349.88;5050991;28;20402;-58
2022/10/17 00:53:13;;;;;;;15.90;13.43;;;;;;;13.28;100.00;101349.84;5052556;28;20499;-54
2022/10/17 00:55:50;;;;;;;16.25;13.95;;;;;;;13.13;100.00;101310.72;5051161;28;20060;-59
2022/10/17 00:58:16;;;;;;;15.25;13.57;;;;;;;13.18;100.00;101332.56;5051249;28;20039;-54
2022/10/17 01:00:42;;;;;;;16.27;14.57;;;;;;;13.25;100.00;101342.03;5031293;28;20037;-55
2022/10/17 01:03:07;;;;;;;16.83;13.50;;;;;;;13.22;100.00;101334.19;5036155;28;20498;-57
2022/10/17 01:05:33;;;;;;;18.75;15.50;;;;;;;12.87;100.00;101264.91;5032427;28;20056;-56
2022/10/17 01:07:58;;;;;;;19.13;14.32;;;;;;;13.30;100.00;101334.78;5047489;28;20162;-55
2022/10/17 01:10:30;;;;;;;16.65;14.68;;;;;;;13.30;100.00;101329.50;5049545;28;20091;-58
2022/10/17 01:13:12;;;;;;;15.43;13.77;;;;;;;13.29;100.00;101330.41;5030935;28;20029;-58
2022/10/17 01:15:59;;;;;;;15.75;14.15;;;;;;;12.95;100.00;101265.50;5043508;28;20037;-58
2022/10/17 01:18:44;;;;;;;16.48;14.80;;;;;;;13.28;100.00;101318.13;5049596;28;20036;-56
2022/10/17 01:21:39;;;;;;;18.98;15.15;;;;;;;13.25;100.00;101316.44;5047722;28;20551;-55
2022/10/17 01:24:18;;;;;;;19.10;14.82;;;;;;;13.23;100.00;101333.25;5030263;28;20031;-50
2022/10/17 01:26:50;;;;;;;19.27;14.20;;;;;;;13.22;100.00;101315.69;5050321;28;20072;-54
2022/10/17 01:29:32;;;;;;;18.25;16.40;;;;;;;13.13;100.00;101282.53;5051595;28;20103;-58
2022/10/17 01:32:01;;;;;;;17.10;15.27;;;;;;;12.92;100.00;101241.84;5050622;28;20423;-55
2022/10/17 01:34:54;;;;;;;16.70;15.00;;;;;;;13.01;100.00;101263.56;5049997;28;20036;-52
2022/10/17 01:37:28;;;;;;;17.63;15.75;;;;;;;13.17;100.00;101285.91;5030677;28;20038;-54
2022/10/17 01:40:07;;;;;;;19.30;16.38;;;;;;;13.14;100.00;101281.59;5056382;28;20025;-55
2022/10/17 01:42:58;;;;;;;16.80;15.23;;;;;;;13.19;100.00;101279.63;5051946;28;20025;-55
2022/10/17 01:45:48;;;;;;;17.85;15.63;;;;;;;13.21;100.00;101287.53;5050538;28;20035;-54
2022/10/17 01:48:19;;;;;;;18.63;16.25;;;;;;;12.95;100.00;101251.44;5047948;28;20029;-53
2022/10/17 01:50:57;;;;;;;20.17;17.05;;;;;;;13.19;100.00;101279.63;5047736;28;20108;-53
2022/10/17 01:53:33;;;;;;;21.08;17.08;;;;;;;13.15;100.00;101283.31;5024311;28;20035;-52
2022/10/17 01:56:01;;;;;;;20.00;16.58;;;;;;;13.15;100.00;101291.25;5050578;28;20025;-57
2022/10/17 01:58:30;;;;;;;17.15;15.00;;;;;;;12.92;100.00;101247.13;5051501;28;20412;-54
2022/10/17 02:00:59;;;;;;;18.73;16.27;;;;;;;13.02;100.00;101263.50;5050589;28;20059;-57
2022/10/17 02:03:26;;;;;;;20.15;16.73;;;;;;;13.04;100.00;101259.03;5051759;28;20032;-54
2022/10/17 02:05:51;;;;;;;21.85;15.68;;;;;;;13.10;100.00;101276.47;5047268;28;20034;-56
2022/10/17 02:08:28;;;;;;;19.35;17.10;;;;;;;12.75;100.00;101216.94;5049355;28;20381;-53
2022/10/17 02:11:08;;;;;;;18.80;16.88;;;;;;;12.99;100.00;101259.19;5051606;28;20021;-54
2022/10/17 02:13:54;;;;;;;20.92;16.52;;;;;;;13.10;100.00;101257.97;5047250;28;20121;-55
2022/10/17 02:16:33;;;;;;;21.08;16.88;;;;;;;13.04;100.00;101261.69;5049584;28;20385;-59
2022/10/17 02:19:08;;;;;;;21.35;16.67;;;;;;;13.06;100.00;101257.19;5051480;28;20040;-58
2022/10/17 02:22:10;;;;;;;23.00;17.83;;;;;;;12.75;100.00;101199.31;5051748;28;20045;-55
2022/10/17 02:24:57;;;;;;;20.25;17.52;;;;;;;13.10;100.00;101264.13;5012062;28;20048;-54
2022/10/17 02:27:37;;;;;;;20.58;16.50;;;;;;;12.80;100.00;101194.72;5051730;28;20063;-55
2022/10/17 02:30:09;;;;;;;21.75;18.08;;;;;;;12.80;100.00;101188.56;5047046;28;20041;-54
2022/10/17 02:32:51;;;;;;;18.95;16.98;;;;;;;13.09;100.00;101241.25;5050318;28;20028;-58
2022/10/17 02:35:18;;;;;;;19.63;17.25;;;;;;;13.08;100.00;101231.59;5051458;28;20071;-53
2022/10/17 02:37:44;;;;;;;20.15;17.27;;;;;;;12.74;100.00;101183.50;5046853;28;20072;-51
2022/10/17 02:40:13;;;;;;;20.17;16.77;;;;;;;12.72;100.00;101194.13;5043437;28;20171;-56
2022/10/17 02:42:39;;;;;;;21.80;17.92;;;;;;;13.08;100.00;101259.78;5031128;28;20111;-57
2022/10/17 02:45:05;;;;;;;20.75;17.38;;;;;;;13.04;100.00;101256.38;5034876;28;20439;-57
2022/10/17 02:47:35;;;;;;;21.95;18.13;;;;;;;13.06;100.00;101274.81;5038177;28;20112;-55
2022/10/17 02:50:01;;;;;;;20.52;17.55;;;;;;;12.85;100.00;101229.75;5047003;28;20032;-54
2022/10/17 02:52:39;;;;;;;21.80;17.63;;;;;;;13.05;100.00;101246.69;5036153;28;20055;-55
2022/10/17 02:55:13;;;;;;;21.70;17.52;;;;;;;12.74;100.00;101202.84;5053815;28;20053;-56
2022/10/17 02:57:41;;;;;;;20.42;16.23;;;;;;;13.10;100.00;101274.72;5050202;28;20493;-53
2022/10/17 03:00:10;;;;;;;20.50;16.83;;;;;;;13.04;100.00;101259.03;5029904;28;20036;-54
2022/10/17 03:02:41;;;;;;;20.52;17.23;;;;;;;13.20;100.00;101273.44;5038448;28;20025;-52
2022/10/17 03:05:07;;;;;;;20.65;16.13;;;;;;;13.26;100.00;101278.50;5054568;28;20021;-53
2022/10/17 03:07:33;;;;;;;21.98;16.63;;;;;;;13.38;100.00;101280.72;5053697;28;20102;-54
2022/10/17 03:09:58;;;;;;;23.58;15.98;;;;;;;13.42;100.00;101278.81;5054636;28;20464;-56
2022/10/17 03:12:23;;;;;;;21.90;17.75;;;;;;;13.46;100.00;101293.63;5054312;28;20029;-53
2022/10/17 03:14:48;;;;;;;21.08;17.90;;;;;;;13.45;100.00;101274.28;5054525;28;20079;-54
2022/10/17 03:17:14;;;;;;;22.60;18.77;;;;;;;13.14;100.00;101212.00;5049610;28;20095;-57
2022/10/17 03:19:39;;;;;;;20.35;18.17;;;;;;;13.55;100.00;101282.72;5046626;28;20064;-53
2022/10/17 03:22:04;;;;;;;20.17;17.30;;;;;;;13.59;100.00;101276.41;5054421;28;20092;-57
2022/10/17 03:24:30;;;;;;;21.02;18.75;;;;;;;13.26;100.00;101217.69;5053841;28;20108;-58
2022/10/17 03:26:55;;;;;;;22.40;18.88;;;;;;;13.66;100.00;101280.53;5054043;28;20052;-57
2022/10/17 03:29:20;;;;;;;22.75;19.55;;;;;;;13.68;100.00;101283.13;5054167;28;20037;-55
2022/10/17 03:31:46;;;;;;;25.95;19.35;;;;;;;13.38;100.00;101221.66;5054485;28;20391;-54
2022/10/17 03:34:11;;;;;;;24.50;20.20;;;;;;;13.67;100.00;101279.63;5053990;28;20124;-53
2022/10/17 03:36:36;;;;;;;27.05;20.13;;;;;;;13.41;100.00;101230.34;5054011;28;20083;-55
2022/10/17 03:39:02;;;;;;;26.52;19.63;;;;;;;13.31;100.00;101209.63;5052763;28;20033;-55
2022/10/17 03:41:27;;;;;;;23.15;19.38;;;;;;;13.63;100.00;101275.34;5052647;28;20064;-56
2022/10/17 03:43:53;;;;;;;23.08;18.00;;;;;;;13.65;100.00;101278.81;5053862;28;20029;-57
2022/10/17 03:46:18;;;;;;;25.50;17.60;;;;;;;13.66;100.00;101277.03;5053648;28;20090;-54
2022/10/17 03:48:43;;;;;;;22.45;18.42;;;;;;;13.51;100.00;101249.38;5049036;28;20116;-55
2022/10/17 03:51:10;;;;;;;22.33;18.05;;;;;;;13.39;100.00;101234.84;5040700;28;20033;-57
2022/10/17 03:53:35;;;;;;;22.58;17.30;;;;;;;13.61;100.00;101282.50;5052693;28;20476;-56
2022/10/17 03:56:14;;;;;;;23.85;19.15;;;;;;;13.66;100.00;101284.97;5052530;28;20043;-54
2022/10/17 03:58:39;;;;;;;21.25;17.17;;;;;;;13.37;100.00;101230.50;5052427;28;20025;-58
2022/10/17 04:01:06;;;;;;;23.40;17.33;;;;;;;13.70;100.00;101282.13;5048993;28;20028;-55
2022/10/17 04:03:31;;;;;;;24.13;17.55;;;;;;;13.64;100.00;101279.72;5043604;28;20029;-56
2022/10/17 04:06:01;;;;;;;19.88;17.23;;;;;;;13.31;100.00;101223.66;5048988;28;20144;-55
2022/10/17 04:08:26;;;;;;;20.52;16.55;;;;;;;13.35;100.00;101222.66;5052485;28;20037;-56
2022/10/17 04:10:52;;;;;;;25.73;17.92;;;;;;;13.35;100.00;101229.72;5035499;28;20087;-57
2022/10/17 04:13:17;;;;;;;23.48;17.45;;;;;;;13.40;100.00;101241.84;5053251;28;20039;-52
2022/10/17 04:15:56;;;;;;;23.23;17.70;;;;;;;13.45;100.00;101233.75;5051950;28;20400;-53
2022/10/17 04:18:22;;;;;;;20.48;17.13;;;;;;;13.60;100.00;101246.38;5052038;28;20037;-57
2022/10/17 04:20:48;;;;;;;19.40;16.13;;;;;;;13.59;100.00;101231.44;5048316;28;20087;-56
2022/10/17 04:23:13;;;;;;;18.50;15.40;;;;;;;13.97;100.00;101286.38;5041883;28;20039;-55
2022/10/17 04:25:39;;;;;;;20.05;15.70;;;;;;;14.02;100.00;101296.78;5048100;28;20037;-56
2022/10/17 04:28:04;;;;;;;20.52;16.23;;;;;;;14.11;100.00;101291.13;5048740;28;20053;-55
2022/10/17 04:30:29;;;;;;;18.52;14.55;;;;;;;14.25;100.00;101301.16;5052812;28;20446;-56
2022/10/17 04:32:55;;;;;;;17.95;14.57;;;;;;;14.37;100.00;101305.97;5052884;28;20053;-53
2022/10/17 04:35:20;;;;;;;16.05;13.40;;;;;;;14.46;100.00;101309.13;5052882;28;20051;-57
2022/10/17 04:37:45;;;;;;;17.75;13.82;;;;;;;14.57;100.00;101313.97;5052732;28;20029;-53
2022/10/17 04:40:11;;;;;;;16.05;14.40;;;;;;;14.52;100.00;101300.94;5052682;28;20404;-53
2022/10/17 04:42:36;;;;;;;17.23;13.70;;;;;;;14.56;100.00;101305.16;5048192;28;20029;-54
2022/10/17 04:45:02;;;;;;;18.33;13.60;;;;;;;14.14;100.00;101243.34;5039946;28;20037;-54
2022/10/17 04:47:27;;;;;;;18.52;14.30;;;;;;;14.50;100.00;101302.78;5048403;28;20037;-53
2022/10/17 04:49:53;;;;;;;17.23;13.43;;;;;;;14.50;100.00;101309.88;5047029;28;20037;-55
2022/10/17 04:52:18;;;;;;;18.58;13.18;;;;;;;14.14;100.00;101256.56;5038054;28;20047;-55
2022/10/17 04:54:43;;;;;;;16.83;13.55;;;;;;;14.40;100.00;101316.47;5052554;28;20039;-54
2022/10/17 04:57:09;;;;;;;20.65;14.07;;;;;;;14.39;100.00;101305.00;5052528;28;20032;-58
2022/10/17 04:59:34;;;;;;;15.15;12.82;;;;;;;14.47;100.00;101307.34;5052122;28;20029;-56
2022/10/17 05:01:59;;;;;;;18.27;13.23;;;;;;;14.53;100.00;101313.25;5052350;28;20059;-58
2022/10/17 05:04:25;;;;;;;14.30;12.80;;;;;;;14.47;100.00;101288.81;5052369;28;20078;-55
2022/10/17 05:06:51;;;;;;;17.30;12.85;;;;;;;14.24;100.00;101257.94;5052280;28;20112;-55
2022/10/17 05:09:16;;;;;;;13.60;12.23;;;;;;;14.60;100.00;101306.78;5052280;28;20112;-58
2022/10/17 05:11:42;;;;;;;14.85;13.32;;;;;;;14.54;100.00;101292.91;5052376;28;20037;-59
2022/10/17 05:14:08;;;;;;;16.15;12.52;;;;;;;14.73;100.00;101327.47;5052254;28;20436;-57
2022/10/17 05:16:34;;;;;;;16.65;12.35;;;;;;;14.66;100.00;101316.25;5051633;28;20079;-54
2022/10/17 05:19:00;;;;;;;15.38;12.88;;;;;;;14.45;100.00;101278.25;5052152;28;20060;-54
2022/10/17 05:21:26;;;;;;;13.80;12.32;;;;;;;14.58;100.00;101300.69;5051863;28;20064;-56
2022/10/17 05:23:52;;;;;;;13.60;11.55;;;;;;;14.56;100.00;101293.72;5052210;28;20055;-54
2022/10/17 05:26:17;;;;;;;15.85;12.02;;;;;;;14.90;100.00;101333.78;5048684;28;20037;-56
2022/10/17 05:28:42;;;;;;;14.30;12.10;;;;;;;14.94;100.00;101326.56;5051890;28;20041;-57
2022/10/17 05:31:09;;;;;;;15.63;12.48;;;;;;;14.91;100.00;101324.91;5052269;28;20032;-55
2022/10/17 05:33:35;;;;;;;16.45;12.57;;;;;;;14.92;100.00;101337.22;5050919;28;20495;-53
2022/10/17 05:36:01;;;;;;;14.95;11.70;;;;;;;14.84;100.00;101317.25;5050750;28;20041;-53
2022/10/17 05:38:26;;;;;;;12.80;11.40;;;;;;;14.82;100.00;101312.06;5051809;28;20037;-57
2022/10/17 05:40:59;;;;;;;14.05;11.52;;;;;;;14.68;100.00;101290.56;5052310;28;20499;-54
2022/10/17 05:43:25;;;;;;;18.58;12.70;;;;;;;14.59;100.00;101270.59;5051701;28;20036;-55
2022/10/17 05:45:50;;;;;;;13.68;12.27;;;;;;;14.99;100.00;101332.53;5050667;28;20040;-54
2022/10/17 05:48:16;;;;;;;15.05;12.35;;;;;;;14.96;100.00;101353.88;5051779;28;20506;-54
2022/10/17 05:50:41;;;;;;;15.38;12.23;;;;;;;14.90;100.00;101332.91;5050445;28;20528;-51
2022/10/17 05:53:07;;;;;;;16.48;11.52;;;;;;;14.79;100.00;101325.44;5051771;28;20467;-53
2022/10/17 05:55:32;;;;;;;14.98;11.52;;;;;;;14.76;100.00;101317.59;5052069;28;20066;-57
2022/10/17 05:57:59;;;;;;;13.70;12.23;;;;;;;14.66;100.00;101310.94;5051582;28;20077;-53
2022/10/17 06:00:24;;;;;;;14.95;10.55;;;;;;;14.86;100.00;101341.91;5051933;28;20037;-56
2022/10/17 06:02:50;;;;;;;14.07;11.50;;;;;;;14.58;100.00;101298.03;5051413;28;20071;-57
2022/10/17 06:05:15;;;;;;;14.38;12.35;;;;;;;14.81;100.00;101342.13;5052005;28;20057;-59
2022/10/17 06:07:41;;;;;;;14.18;11.90;;;;;;;14.86;100.00;101353.38;5051686;28;20524;-56
2022/10/17 06:10:07;;;;;;;15.52;13.18;;;;;;;14.65;100.00;101299.47;5050169;28;20033;-55
2022/10/17 06:12:32;;;;;;;14.20;11.40;;;;;;;14.67;100.00;101293.28;5051227;28;20033;-57
2022/10/17 06:14:58;;;;;;;13.73;12.32;;;;;;;15.02;100.00;101354.47;5051828;28;20036;-54
2022/10/17 06:17:23;;;;;;;14.38;12.52;;;;;;;14.82;100.00;101317.34;5050505;28;20037;-52
2022/10/17 06:19:48;;;;;;;17.25;11.80;;;;;;;14.75;100.00;101315.00;5051711;28;20037;-50
2022/10/17 06:22:14;;;;;;;13.43;11.57;;;;;;;14.71;100.00;101314.25;5051287;28;20037;-54
2022/10/17 06:24:39;;;;;;;15.05;11.32;;;;;;;14.83;100.00;101331.44;5050102;28;20068;-58
2022/10/17 06:27:04;;;;;;;17.63;12.20;;;;;;;15.15;100.00;101390.13;5052878;28;20115;-58
2022/10/17 06:29:30;;;;;;;14.25;11.05;;;;;;;15.05;100.00;101357.00;5055568;28;20037;-57
2022/10/17 06:31:55;;;;;;;13.48;12.02;;;;;;;14.81;100.00;101312.09;5050794;28;20037;-50
2022/10/17 06:34:21;;;;;;;15.20;11.75;;;;;;;14.73;100.00;101303.63;5053365;28;20045;-53
2022/10/17 06:36:46;;;;;;;17.67;11.77;;;;;;;15.13;100.00;101372.56;5053866;28;20499;-55
2022/10/17 06:39:12;;;;;;;14.68;11.32;;;;;;;14.80;100.00;101313.03;5054886;28;20051;-55
2022/10/17 06:41:38;;;;;;;16.33;11.40;;;;;;;15.17;100.00;101384.78;5054734;28;20041;-53
2022/10/17 06:44:09;;;;;;;14.23;11.45;;;;;;;15.09;100.00;101363.03;5054049;28;20028;-55
2022/10/17 06:46:35;;;;;;;13.95;12.40;;;;;;;15.23;100.00;101379.22;5038771;28;20033;-52
2022/10/17 06:49:00;;;;;;;13.43;10.82;;;;;;;14.96;100.00;101322.06;5053713;28;20036;-55
2022/10/17 06:51:25;;;;;;;13.48;11.45;;;;;;;15.25;100.00;101376.47;5044816;28;20049;-52
2022/10/17 06:53:50;;;;;;;13.75;11.70;;;;;;;15.24;100.00;101378.25;5048921;28;20033;-53
2022/10/17 06:56:16;;;;;;;16.50;11.88;;;;;;;15.29;100.00;101392.22;5054823;28;20037;-56
2022/10/17 06:58:41;;;;;;;15.02;11.50;;;;;;;15.21;100.00;101379.25;5054609;28;20032;-52
2022/10/17 07:01:10;;;;;;;13.43;11.73;;;;;;;15.36;100.00;101398.97;5054624;28;20116;-55
2022/10/17 07:03:36;;;;;;;15.70;11.80;;;;;;;15.01;100.00;101352.75;5050571;28;20040;-51
2022/10/17 07:06:02;;;;;;;15.88;11.95;;;;;;;15.05;100.00;101364.09;5050239;28;20032;-54
2022/10/17 07:08:27;;;;;;;17.55;12.10;;;;;;;15.32;100.00;101434.53;5053207;28;20037;-50
2022/10/17 07:10:53;;;;;;;17.40;12.35;;;;;;;15.14;100.00;101392.84;5054118;28;20040;-56
2022/10/17 07:13:19;;;;;;;15.85;11.15;;;;;;;15.21;100.00;101410.22;5052843;28;20032;-56
2022/10/17 07:15:44;;;;;;;17.90;11.68;;;;;;;15.35;100.00;101436.19;5054329;28;20037;-56
2022/10/17 07:18:10;;;;;;;13.65;11.82;;;;;;;15.66;100.00;101469.31;5053919;28;20037;-52
2022/10/17 07:20:35;;;;;;;13.23;11.57;;;;;;;15.56;100.00;101451.19;5054231;28;20025;-54
2022/10/17 07:23:01;;;;;;;15.60;11.35;;;;;;;15.34;100.00;101418.53;5053480;28;20033;-50
2022/10/17 07:25:27;;;;;;;13.40;11.70;;;;;;;15.39;100.00;101451.88;5052518;28;20063;-57
2022/10/17 07:27:52;;;;;;;14.50;11.02;;;;;;;15.74;100.00;101501.69;5052973;28;20045;-54
2022/10/17 07:30:18;;;;;;;13.02;11.25;;;;;;;15.80;100.00;101521.78;5052475;28;20387;-57
2022/10/17 07:32:44;;;;;;;15.88;10.85;;;;;;;15.84;100.00;101526.06;5053713;28;20036;-58
2022/10/17 07:35:10;;;;;;;13.40;11.20;;;;;;;15.86;100.00;101528.63;5054099;28;20025;-55
2022/10/17 07:37:36;;;;;;;15.65;10.85;;;;;;;15.65;100.00;101493.25;5049279;28;20037;-53
2022/10/17 07:40:03;;;;;;;12.20;10.85;;;;;;;15.64;100.00;101497.69;5048912;28;20488;-54
2022/10/17 07:42:28;;;;;;;12.68;10.75;;;;;;;15.90;100.00;101547.03;5052029;28;20034;-55
2022/10/17 07:44:54;;;;;;;12.05;10.75;;;;;;;15.97;100.00;101553.78;5054043;28;20392;-58
2022/10/17 07:47:19;;;;;;;15.77;11.07;;;;;;;15.98;100.00;101557.31;5049359;28;20025;-53
2022/10/17 07:49:45;;;;;;;12.55;10.98;;;;;;;15.69;100.00;101514.31;5055774;28;20072;-58
2022/10/17 07:52:11;;;;;;;11.98;10.75;;;;;;;16.08;100.00;101585.22;5053445;28;20037;-55
2022/10/17 07:54:37;;;;;;;13.15;11.80;;;;;;;15.79;100.00;101532.50;5032510;28;20080;-55
2022/10/17 07:57:02;;;;;;;16.65;11.18;;;;;;;16.12;100.00;101598.28;5041285;28;20064;-57
2022/10/17 07:59:27;;;;;;;17.25;11.50;;;;;;;16.12;100.00;101595.63;5053652;28;20473;-53
2022/10/17 08:01:56;;;;;;;13.63;10.80;;;;;;;15.88;100.00;101551.53;5053543;28;20056;-59
2022/10/17 08:04:22;;;;;;;12.70;11.02;;;;;;;16.10;100.00;101578.03;5053360;28;20127;-56
2022/10/17 08:06:47;;;;;;;13.75;11.27;;;;;;;16.20;100.00;101590.81;5053492;28;20033;-60
2022/10/17 08:09:13;;;;;;;16.08;11.13;;;;;;;16.20;100.00;101588.16;5053186;28;20036;-56
2022/10/17 08:11:38;;;;;;;13.07;10.85;;;;;;;16.14;100.00;101599.06;5048863;28;20461;-56
2022/10/17 08:14:03;;;;;;;14.77;11.23;;;;;;;15.90;100.00;101549.69;5049219;28;20037;-59
2022/10/17 08:16:29;;;;;;;13.07;10.88;;;;;;;16.22;100.00;101596.97;5052324;28;20105;-58
2022/10/17 08:18:54;;;;;;;13.38;11.70;;;;;;;16.21;100.00;101597.00;5045793;28;20033;-58
2022/10/17 08:21:19;;;;;;;13.10;11.60;;;;;;;16.22;100.00;101582.81;5039752;28;20041;-57
2022/10/17 08:23:45;;;;;;;16.20;12.10;;;;;;;15.87;100.00;101525.94;5051453;28;20041;-57
2022/10/17 08:26:12;;;;;;;13.88;11.68;;;;;;;16.15;100.00;101578.69;5046997;28;20038;-56
2022/10/17 08:28:38;;;;;;;14.95;11.70;;;;;;;15.80;100.00;101508.53;5049975;28;20512;-58
2022/10/17 08:31:16;;;;;;;16.00;11.32;;;;;;;16.09;100.00;101565.66;5051276;28;20044;-61
2022/10/17 08:33:42;;;;;;;17.45;11.57;;;;;;;16.06;100.00;101574.63;5044393;28;20342;-60
2022/10/17 08:36:13;;;;;;;14.95;11.45;;;;;;;16.05;100.00;101578.22;5051222;28;20028;-57
2022/10/17 08:38:41;;;;;;;17.83;11.70;;;;;;;15.77;100.00;101508.66;5035444;28;20464;-58
2022/10/17 08:41:14;;;;;;;20.80;12.32;;;;;;;16.05;100.00;101540.19;5050022;28;20037;-57
2022/10/17 08:43:39;;;;;;;13.30;11.73;;;;;;;16.05;100.00;101550.81;5050022;28;20029;-55
2022/10/17 08:46:06;;;;;;;15.15;11.88;;;;;;;15.80;100.00;101487.28;5051194;28;20040;-55
2022/10/17 08:48:38;;;;;;;16.15;12.60;;;;;;;16.08;100.00;101556.00;5032919;28;20033;-54
2022/10/17 08:51:23;;;;;;;17.38;12.45;;;;;;;15.69;100.00;101487.75;5043285;28;20419;-57
2022/10/17 08:53:57;;;;;;;13.57;11.77;;;;;;;16.14;100.00;101569.00;5043381;28;20033;-55
2022/10/17 08:56:24;;;;;;;18.38;12.88;;;;;;;16.14;100.00;101582.28;5048208;28;20037;-56
2022/10/17 08:58:50;;;;;;;20.05;14.07;;;;;;;16.16;100.00;101585.72;5050964;28;20033;-56
2022/10/17 09:01:30;;;;;;;15.50;12.45;;;;;;;16.17;100.00;101593.63;5046234;28;20025;-56
2022/10/17 09:04:04;;;;;;;16.85;13.35;;;;;;;16.24;100.00;101599.53;5045895;28;20418;-58
2022/10/17 09:07:02;;;;;;;19.80;13.00;;;;;;;16.35;100.00;101599.91;5048741;28;20037;-60
2022/10/17 09:09:45;;;;;;;17.60;12.85;;;;;;;16.38;100.00;101610.41;4980754;28;20044;-59
2022/10/17 09:12:31;;;;;;;18.25;12.98;;;;;;;16.42;100.00;101605.84;5050422;28;20033;-58
2022/10/17 09:15:49;;;;;;;16.48;13.48;;;;;;;16.11;100.00;101540.75;5037240;28;20033;-56
2022/10/17 09:18:21;;;;;;;19.25;13.27;;;;;;;16.42;100.00;101572.16;5050615;28;20041;-60
2022/10/17 09:20:50;;;;;;;17.50;12.45;;;;;;;16.44;100.00;101580.91;5049150;28;20037;-62
2022/10/17 09:23:23;;;;;;;15.85;12.82;;;;;;;16.22;100.00;101537.66;5049534;28;20037;-57
2022/10/17 09:25:52;;;;;;;17.33;12.30;;;;;;;16.48;100.00;101577.19;5050349;28;20043;-61
2022/10/17 09:28:33;;;;;;;14.52;12.50;;;;;;;16.64;100.00;101586.22;5050544;28;20056;-57
2022/10/17 09:31:05;;;;;;;16.48;13.50;;;;;;;16.73;100.00;101601.75;5045663;28;20026;-57
2022/10/17 09:33:39;;;;;;;16.05;11.90;;;;;;;16.82;100.00;101611.97;5041035;28;20032;-53
2022/10/17 09:36:10;;;;;;;14.65;11.57;;;;;;;16.72;100.00;101613.31;5045451;28;20037;-56
2022/10/17 09:38:47;;;;;;;17.70;11.30;;;;;;;16.38;100.00;101570.56;5049828;28;20036;-58
2022/10/17 09:41:17;;;;;;;17.17;12.35;;;;;;;16.52;100.00;101645.22;5048880;28;20037;-57
2022/10/17 09:43:44;;;;;;;14.93;12.00;;;;;;;16.44;100.00;101628.75;5043329;28;20063;-56
2022/10/17 09:46:32;;;;;;;19.45;12.45;;;;;;;16.34;100.00;101630.94;5049097;28;20445;-57
2022/10/17 09:49:03;;;;;;;17.70;11.52;;;;;;;16.55;100.00;101663.72;5049091;28;20079;-58
2022/10/17 09:51:29;;;;;;;;;;;;;;;16.55;100.00;101668.19;5028907;28;20408;-57
2022/10/17 09:54:00;;;;;;;15.30;12.15;;;;;;;16.42;100.00;101657.19;5046645;28;20107;-62
2022/10/17 09:56:25;;;;;;;15.48;12.27;;;;;;;16.48;100.00;101678.19;5050188;28;20369;-56
2022/10/17 09:58:59;;;;;;;17.75;11.18;;;;;;;16.45;100.00;101688.94;5044306;28;20113;-60
2022/10/17 10:01:29;;;;;;;12.70;9.82;;;;;;;16.45;100.00;101694.25;5048573;28;20094;-58
2022/10/17 10:04:09;;;;;;;13.38;9.80;;;;;;;16.20;100.00;101651.91;5054508;28;20025;-59
2022/10/17 10:06:34;;;;;;;18.20;10.35;;;;;;;16.42;100.00;101699.72;5049685;28;20026;-58
2022/10/17 10:09:04;;;;;;;11.30;9.20;;;;;;;16.46;100.00;101700.44;5033780;28;20075;-56
2022/10/17 10:11:58;;;;;;;13.30;9.35;;;;;;;16.33;100.00;101698.31;5040627;28;20032;-57
2022/10/17 10:14:32;;;;;;;10.75;8.57;;;;;;;16.04;100.00;101661.47;5049473;28;20424;-53
2022/10/17 10:16:57;;;;;;;10.77;9.68;;;;;;;16.03;100.00;101651.78;5042803;28;20048;-56
2022/10/17 10:19:37;;;;;;;14.07;9.68;;;;;;;16.33;100.00;101700.97;5048979;28;20041;-57
2022/10/17 10:22:18;;;;;;;13.32;9.38;;;;;;;16.34;100.00;101717.78;5034915;28;20030;-57
2022/10/17 10:24:43;;;;;;;17.33;9.70;;;;;;;16.10;100.00;101679.81;5052254;28;20144;-57
2022/10/17 10:27:15;;;;;;;13.45;10.20;;;;;;;16.32;100.00;101717.81;5053080;28;20132;-58
2022/10/17 10:29:41;;;;;;;;;;;;;;;16.37;100.00;101735.38;5053213;28;20079;-60
2022/10/17 10:32:08;;;;;;;12.55;8.90;;;;;;;16.34;100.00;101739.03;5056230;28;19916;-57
2022/10/17 10:34:34;;;;;;;13.95;9.13;;;;;;;16.07;100.00;101692.34;5054115;28;20117;-58
2022/10/17 10:37:02;;;;;;;11.07;9.25;;;;;;;16.10;100.00;101686.91;5052448;28;20041;-56
2022/10/17 10:39:37;;;;;;;13.02;9.50;;;;;;;15.87;100.00;101641.88;5051630;28;20106;-56
2022/10/17 10:42:06;;;;;;;10.10;8.00;;;;;;;16.06;100.00;101682.66;5045282;28;20429;-62
2022/10/17 10:44:32;;;;;;;11.55;8.30;;;;;;;16.18;100.00;101704.25;5053081;28;20074;-55
2022/10/17 10:47:22;;;;;;;11.05;7.75;;;;;;;16.10;100.00;101695.75;5051977;28;20048;-59
2022/10/17 10:49:50;;;;;;;7.55;6.47;;;;;;;16.36;100.00;101773.50;5053102;28;20033;-57
2022/10/17 10:52:26;;;;;;;11.85;6.88;;;;;;;16.05;100.00;101708.34;5052265;28;20028;-56
2022/10/17 10:55:15;;;;;;;9.55;6.30;;;;;;;16.37;100.00;101760.16;5053346;28;20033;-58
2022/10/17 10:57:42;;;;;;;6.97;6.28;;;;;;;16.31;100.00;101755.94;5049972;28;20037;-56
2022/10/17 11:00:11;;;;;;;10.43;6.60;;;;;;;16.29;100.00;101771.09;5068826;28;20033;-53
2022/10/17 11:02:43;;;;;;;10.23;5.20;;;;;;;16.18;100.00;101775.13;5036927;28;20033;-58
2022/10/17 11:05:16;;;;;;;7.20;5.43;;;;;;;15.97;100.00;101744.97;5053255;28;20017;-63
2022/10/17 11:07:54;;;;;;;9.68;5.65;;;;;;;16.09;100.00;101767.50;5051775;28;20396;-56
2022/10/17 11:10:35;;;;;;;8.40;5.85;;;;;;;16.06;100.00;101764.97;5047854;28;20044;-60
2022/10/17 11:13:17;;;;;;;8.97;4.70;;;;;;;15.73;100.00;101714.94;5039079;28;20041;-57